| time (UTC) | temp C | wind direction | speed KPH | gust KPH | rain 1hr cm | rain 24hr cm | rain mn cm | humidity % | barometer mb |
| 20260510052432 | 17 | 0.0 | 0.0 | 0.00 | 0.00 | 0.00 | 50 | 1002.9 | |
| 20260510042433 | 17 | 0.0 | 0.0 | 0.00 | 0.00 | 0.00 | 49 | 1003.1 | |
| 20260510033650 | 17 | 0.0 | 0.0 | 0.00 | 0.00 | 0.00 | 49 | 1003.4 | |
| 20260510024832 | 18 | 0.0 | 0.0 | 0.00 | 0.00 | 0.00 | 48 | 1003.5 | |
| 20260510020031 | 18 | 0.0 | 0.0 | 0.00 | 0.00 | 0.00 | 48 | 1003.6 | |
| 20260510000537 | 19 | 0.0 | 0.0 | 0.00 | 0.00 | 0.00 | 46 | 1004.4 | |
| 20260509231201 | 20 | 0.0 | 0.0 | 0.00 | 0.00 | 0.00 | 45 | 1004.6 | |
| 20260509221201 | 20 | 0.0 | 0.0 | 0.00 | 0.00 | 0.00 | 44 | 1004.3 | |
| 20260509211201 | 21 | 0.0 | 0.0 | 0.00 | 0.00 | 0.00 | 42 | 1004.3 | |
| 20260509201201 | 23 | 0.0 | 0.0 | 0.00 | 0.00 | 0.00 | 41 | 1004.4 | |
| 20260509192400 | 26 | 0.0 | 0.0 | 0.00 | 0.00 | 0.00 | 40 | 1003.8 | |
| 20260509183600 | 27 | 0.0 | 0.0 | 0.00 | 0.00 | 0.00 | 39 | 1003.6 | |
| 20260509174801 | 28 | 0.0 | 0.0 | 0.00 | 0.00 | 0.00 | 38 | 1003.5 | |
| 20260509170000 | 30 | 0.0 | 0.0 | 0.00 | 0.00 | 0.00 | 38 | 1003.7 | |
| 20260509161200 | 31 | 0.0 | 0.0 | 0.00 | 0.00 | 0.00 | 37 | 1003.9 | |
| 20260509152359 | 34 | 0.0 | 0.0 | 0.00 | 0.00 | 0.00 | 36 | 1004.2 | |
| 20260509143600 | 35 | 0.0 | 0.0 | 0.00 | 0.00 | 0.00 | 37 | 1004.7 | |
| 20260509134758 | 35 | 0.0 | 0.0 | 0.00 | 0.00 | 0.00 | 37 | 1005.1 | |
| 20260509130005 | 34 | 0.0 | 0.0 | 0.00 | 0.00 | 0.00 | 39 | 1005.2 | |
| 20260509115957 | 33 | 0.0 | 0.0 | 0.00 | 0.00 | 0.00 | 40 | 1005.6 | |
| 20260509111157 | 32 | 0.0 | 0.0 | 0.00 | 0.00 | 0.00 | 42 | 1006.4 | |
| 20260509102357 | 31 | 0.0 | 0.0 | 0.00 | 0.00 | 0.00 | 44 | 1006.6 | |
| 20260509084756 | 23 | 0.0 | 0.0 | 0.00 | 0.00 | 0.00 | 48 | 1007.0 | |
| 20260509065956 | 15 | 0.0 | 0.0 | 0.00 | 0.00 | 0.00 | 50 | 1007.6 |